Time;durP1;ratioP1;P1;durP2;ratioP2;P2;SDS_P1;SDS_P2;PMS_P1;PMS_P2;Temp;Humidity;BMP_temperature;BMP_pressure;BME280_temperature;BME280_humidity;BME280_pressure;Samples;Min_cycle;Max_cycle;Signal;HPM_P1;HPM_P2
2021/10/13 00:00:49;;;;;;;;;;;;;;;9.31;84.65;100423.11;2046840;70;20117;-62
2021/10/13 00:03:16;;;;;;;;;;;;;;;9.28;84.35;100432.83;2046924;70;20096;-60
2021/10/13 00:05:44;;;;;;;;;;;;;;;9.25;84.18;100427.67;2046826;70;20170;-60
2021/10/13 00:08:12;;;;;;;;;;;;;;;9.22;84.05;100424.31;2046907;70;20138;-61
2021/10/13 00:10:40;;;;;;;;;;;;;;;9.19;84.14;100421.83;2046979;70;20107;-61
2021/10/13 00:13:08;;;;;;;;;;;;;;;9.11;84.18;100411.62;2047000;70;20107;-60
2021/10/13 00:15:36;;;;;;;;;;;;;;;9.09;84.39;100417.36;2046899;70;20377;-61
2021/10/13 00:18:04;;;;;;;;;;;;;;;9.12;84.34;100414.62;2047049;70;20137;-61
2021/10/13 00:20:32;;;;;;;;;;;;;;;9.11;84.65;100416.87;2047003;70;20137;-61
2021/10/13 00:23:00;;;;;;;;;;;;;;;9.11;84.69;100410.73;2046957;70;20141;-61
2021/10/13 00:25:28;;;;;;;;;;;;;;;9.12;84.36;100404.12;2047019;70;20099;-61
2021/10/13 00:27:56;;;;;;;;;;;;;;;9.09;84.44;100408.16;2046918;70;20145;-61
2021/10/13 00:30:23;;;;;;;;;;;;;;;9.05;84.39;100405.27;2046967;70;20169;-61
2021/10/13 00:32:51;;;;;;;;;;;;;;;8.97;84.35;100397.68;2046966;70;20111;-61
2021/10/13 00:35:19;;;;;;;;;;;;;;;8.95;84.13;100390.79;2047012;70;20137;-61
2021/10/13 00:37:47;;;;;;;;;;;;;;;8.91;84.06;100395.73;2047006;70;20110;-61
2021/10/13 00:40:15;;;;;;;;;;;;;;;8.84;84.11;100385.47;2040868;70;20147;-61
2021/10/13 00:42:43;;;;;;;;;;;;;;;8.76;84.25;100375.73;2039671;70;20119;-60
2021/10/13 00:45:10;;;;;;;;;;;;;;;8.76;84.10;100375.73;2039777;70;20137;-61
2021/10/13 00:47:38;;;;;;;;;;;;;;;8.73;84.14;100382.86;2039753;70;20111;-61
2021/10/13 00:50:07;;;;;;;;;;;;;;;8.70;84.20;100385.13;2039770;70;20107;-61
2021/10/13 00:52:36;;;;;;;;;;;;;;;8.71;84.14;100384.22;2039268;70;20177;-60
2021/10/13 00:55:04;;;;;;;;;;;;;;;8.68;83.98;100381.23;2039722;70;20174;-62
2021/10/13 00:57:32;;;;;;;;;;;;;;;8.69;83.79;100379.48;2039793;70;20108;-61
2021/10/13 01:00:00;;;;;;;;;;;;;;;8.67;83.62;100383.95;2039855;70;20095;-60
2021/10/13 01:02:30;;;;;;;;;;;;;;;8.62;83.63;100370.97;2039807;70;20111;-61
2021/10/13 01:05:11;;;;;;;;;;;;;;;8.54;83.86;100373.47;2039796;70;20111;-61
2021/10/13 01:07:40;;;;;;;;;;;;;;;8.49;83.87;100371.88;1994241;70;20100;-61
2021/10/13 01:10:12;;;;;;;;;;;;;;;8.48;83.75;100367.56;2039828;70;20099;-60
2021/10/13 01:12:52;;;;;;;;;;;;;;;8.49;83.50;100364.00;2039894;70;20104;-60
2021/10/13 01:15:19;;;;;;;;;;;;;;;8.48;83.41;100360.12;2039243;70;20149;-59
2021/10/13 01:17:57;;;;;;;;;;;;;;;8.48;83.33;100361.43;2039121;70;20137;-60
2021/10/13 01:20:36;;;;;;;;;;;;;;;8.47;83.22;100365.83;2039645;70;20476;-60
2021/10/13 01:23:07;;;;;;;;;;;;;;;8.42;83.62;100357.27;2037992;70;20112;-60
2021/10/13 01:26:01;;;;;;;;;;;;;;;8.38;83.89;100363.97;2039767;70;20510;-60
2021/10/13 01:28:33;;;;;;;;;;;;;;;8.34;84.11;100367.16;2039780;70;20137;-60
2021/10/13 01:31:18;;;;;;;;;;;;;;;8.32;84.24;100361.11;2038967;70;20141;-61
2021/10/13 01:33:47;;;;;;;;;;;;;;;8.29;84.36;100354.66;2039517;70;20103;-61
2021/10/13 01:36:15;;;;;;;;;;;;;;;8.28;84.36;100355.12;2035806;70;20116;-61
2021/10/13 01:38:45;;;;;;;;;;;;;;;8.28;84.38;100348.99;2039833;70;20096;-60
2021/10/13 01:41:13;;;;;;;;;;;;;;;8.24;84.91;100343.00;2039910;70;20151;-60
2021/10/13 01:43:42;;;;;;;;;;;;;;;8.19;85.01;100347.58;2039856;70;20137;-61
2021/10/13 01:46:10;;;;;;;;;;;;;;;8.17;85.02;100341.97;2039825;70;20096;-60
2021/10/13 01:48:39;;;;;;;;;;;;;;;8.15;85.03;100345.10;2039894;70;20127;-61
2021/10/13 01:51:08;;;;;;;;;;;;;;;8.12;85.04;100341.68;2039835;70;20147;-60
2021/10/13 01:53:36;;;;;;;;;;;;;;;8.15;84.98;100354.28;2039760;70;20100;-61
2021/10/13 01:56:04;;;;;;;;;;;;;;;8.08;85.29;100344.02;2039825;70;20119;-60
2021/10/13 01:58:33;;;;;;;;;;;;;;;8.04;85.36;100341.11;2039798;70;20956;-61
2021/10/13 02:01:02;;;;;;;;;;;;;;;8.03;85.31;100338.07;2039814;70;20115;-60
2021/10/13 02:03:31;;;;;;;;;;;;;;;8.07;85.14;100334.42;2039805;70;20346;-61
2021/10/13 02:06:00;;;;;;;;;;;;;;;8.07;85.14;100330.48;2039782;70;20142;-61
2021/10/13 02:08:29;;;;;;;;;;;;;;;8.09;84.89;100332.60;2039822;70;20146;-60
2021/10/13 02:10:59;;;;;;;;;;;;;;;8.09;84.70;100328.67;2039819;70;20127;-60
2021/10/13 02:13:28;;;;;;;;;;;;;;;8.09;84.60;100330.44;2039808;70;20343;-60
2021/10/13 02:15:56;;;;;;;;;;;;;;;8.07;84.66;100330.48;2039655;70;20137;-60
2021/10/13 02:18:26;;;;;;;;;;;;;;;8.04;84.83;100331.05;2039793;70;20107;-61
2021/10/13 02:20:55;;;;;;;;;;;;;;;8.01;84.61;100335.11;2039836;70;20107;-60
2021/10/13 02:23:25;;;;;;;;;;;;;;;7.95;84.48;100347.10;2039825;70;20141;-60
2021/10/13 02:25:53;;;;;;;;;;;;;;;7.86;84.54;100345.21;2045693;70;20111;-60
2021/10/13 02:28:22;;;;;;;;;;;;;;;7.83;84.58;100343.15;2046700;70;20111;-61
2021/10/13 02:30:51;;;;;;;;;;;;;;;7.80;84.68;100344.55;2044565;70;20107;-60
2021/10/13 02:33:19;;;;;;;;;;;;;;;7.82;84.45;100340.11;2046831;70;20396;-60
2021/10/13 02:35:47;;;;;;;;;;;;;;;7.85;84.18;100338.24;2046707;70;20111;-60
2021/10/13 02:38:14;;;;;;;;;;;;;;;7.88;83.94;100338.61;2046674;70;20103;-60
2021/10/13 02:40:42;;;;;;;;;;;;;;;7.89;83.90;100321.95;2046675;70;20107;-60
2021/10/13 02:43:11;;;;;;;;;;;;;;;7.90;83.73;100314.51;2046701;70;20148;-61
2021/10/13 02:45:40;;;;;;;;;;;;;;;7.86;83.70;100329.48;2046598;70;20158;-61
2021/10/13 02:48:09;;;;;;;;;;;;;;;7.89;83.95;100328.52;2046621;70;20141;-60
2021/10/13 02:50:44;;;;;;;;;;;;;;;7.96;83.85;100322.15;2046381;70;20107;-61
2021/10/13 02:53:20;;;;;;;;;;;;;;;7.99;83.94;100329.92;2046408;70;20111;-60
2021/10/13 02:56:01;;;;;;;;;;;;;;;8.02;84.08;100324.58;2046687;70;20176;-60
2021/10/13 02:58:33;;;;;;;;;;;;;;;8.05;83.87;100319.20;2046752;70;20145;-60
2021/10/13 03:01:02;;;;;;;;;;;;;;;8.02;84.03;100323.27;2045364;70;20137;-60
2021/10/13 03:03:31;;;;;;;;;;;;;;;8.03;83.98;100331.52;2046658;70;20116;-60
2021/10/13 03:06:00;;;;;;;;;;;;;;;8.01;83.96;100335.96;2046296;70;20112;-60
2021/10/13 03:08:30;;;;;;;;;;;;;;;8.02;83.88;100324.58;2046556;70;20154;-61
2021/10/13 03:10:59;;;;;;;;;;;;;;;8.05;84.03;100323.59;2046761;70;20174;-60
2021/10/13 03:13:28;;;;;;;;;;;;;;;8.08;84.01;100330.91;2046637;70;20358;-60
2021/10/13 03:15:57;;;;;;;;;;;;;;;8.11;83.84;100325.56;2046484;70;20095;-60
2021/10/13 03:18:25;;;;;;;;;;;;;;;8.11;83.80;100329.50;2046589;70;20108;-60
2021/10/13 03:20:54;;;;;;;;;;;;;;;8.13;83.69;100321.55;2046592;70;20091;-61
2021/10/13 03:23:22;;;;;;;;;;;;;;;8.10;84.02;100315.97;2046545;70;20178;-60
2021/10/13 03:25:51;;;;;;;;;;;;;;;8.08;84.16;100307.30;2029095;70;20108;-60
2021/10/13 03:28:19;;;;;;;;;;;;;;;8.14;83.94;100305.38;2018025;71;20146;-60
2021/10/13 03:30:47;;;;;;;;;;;;;;;8.18;83.80;100306.98;2017971;71;20138;-60
2021/10/13 03:33:16;;;;;;;;;;;;;;;8.18;83.77;100305.66;2018008;71;20112;-61
2021/10/13 03:35:44;;;;;;;;;;;;;;;8.18;83.70;100307.83;2017938;71;20104;-60
2021/10/13 03:38:12;;;;;;;;;;;;;;;8.18;83.66;100313.07;2018026;71;20108;-60
2021/10/13 03:40:40;;;;;;;;;;;;;;;8.20;83.61;100305.16;2018002;71;20100;-60
2021/10/13 03:43:09;;;;;;;;;;;;;;;8.24;83.54;100291.85;2018032;71;20185;-60
2021/10/13 03:45:38;;;;;;;;;;;;;;;8.30;83.49;100290.80;2018159;71;20096;-60
2021/10/13 03:48:06;;;;;;;;;;;;;;;8.34;83.42;100289.77;2018019;71;20124;-60
2021/10/13 03:50:33;;;;;;;;;;;;;;;8.34;83.59;100288.89;2018187;71;20217;-60
2021/10/13 03:53:01;;;;;;;;;;;;;;;8.41;83.53;100283.39;2018120;71;20112;-61
2021/10/13 03:55:29;;;;;;;;;;;;;;;8.49;83.32;100304.97;2018121;71;20100;-60
2021/10/13 03:57:57;;;;;;;;;;;;;;;8.56;83.25;100329.66;2018093;71;20112;-60
2021/10/13 04:00:25;;;;;;;;;;;;;;;8.57;83.23;100311.70;2018120;71;20159;-60
2021/10/13 04:02:53;;;;;;;;;;;;;;;8.63;83.15;100257.66;2018073;71;20120;-61
2021/10/13 04:05:21;;;;;;;;;;;;;;;8.70;83.45;100324.75;2018170;71;20139;-60
2021/10/13 04:07:49;;;;;;;;;;;;;;;8.64;83.41;100303.99;2018219;71;20100;-60
2021/10/13 04:10:17;;;;;;;;;;;;;;;8.63;83.15;100293.09;2018165;71;20108;-60
2021/10/13 04:12:45;;;;;;;;;;;;;;;8.68;83.01;100347.58;2018124;71;20134;-60
2021/10/13 04:15:14;;;;;;;;;;;;;;;8.65;83.36;100379.18;2018091;71;20108;-61
2021/10/13 04:17:42;;;;;;;;;;;;;;;8.60;83.55;100391.64;2018136;71;20371;-60
2021/10/13 04:20:11;;;;;;;;;;;;;;;8.60;84.62;100382.45;2018136;71;20114;-61
2021/10/13 04:22:39;;;;;;;;;;;;;;;8.67;84.50;100353.76;2018187;71;20159;-60
2021/10/13 04:25:07;;;;;;;;;;;;;;;8.81;84.07;100316.00;2020214;70;20112;-60
2021/10/13 04:27:36;;;;;;;;;;;;;;;8.96;84.03;100307.98;2046765;70;20119;-60
2021/10/13 04:30:04;;;;;;;;;;;;;;;9.07;83.69;100328.58;2046671;70;20190;-60
2021/10/13 04:32:32;;;;;;;;;;;;;;;9.18;83.49;100384.17;2046701;70;20129;-60
2021/10/13 04:35:00;;;;;;;;;;;;;;;9.28;83.36;100407.02;2046736;70;20103;-60
2021/10/13 04:37:28;;;;;;;;;;;;;;;9.36;83.19;100383.91;2046750;70;20145;-61
2021/10/13 04:39:55;;;;;;;;;;;;;;;9.45;83.14;100341.97;2046761;70;20138;-60
2021/10/13 04:42:23;;;;;;;;;;;;;;;9.51;83.36;100308.00;2046655;70;20130;-61
2021/10/13 04:44:51;;;;;;;;;;;;;;;9.56;83.13;100324.45;2046777;70;20178;-60
2021/10/13 04:47:19;;;;;;;;;;;;;;;9.63;83.20;100393.78;2046744;70;20150;-61
2021/10/13 04:49:47;;;;;;;;;;;;;;;9.71;82.99;100416.28;2046763;70;20141;-61
2021/10/13 04:52:14;;;;;;;;;;;;;;;9.78;82.84;100388.82;2046745;70;20095;-60
2021/10/13 04:54:42;;;;;;;;;;;;;;;9.83;82.77;100348.27;2046702;70;20111;-61
2021/10/13 04:57:10;;;;;;;;;;;;;;;9.89;83.03;100328.74;2046795;70;20107;-60
2021/10/13 04:59:38;;;;;;;;;;;;;;;9.94;82.96;100337.30;2046706;70;20200;-60
2021/10/13 05:02:06;;;;;;;;;;;;;;;10.00;82.72;100371.22;2046737;70;20107;-61
2021/10/13 05:04:34;;;;;;;;;;;;;;;10.08;82.60;100412.97;2046744;70;20115;-60
2021/10/13 05:07:02;;;;;;;;;;;;;;;10.17;82.47;100414.38;2046745;70;20107;-60
2021/10/13 05:09:30;;;;;;;;;;;;;;;10.24;82.36;100382.93;2046614;70;20115;-60
2021/10/13 05:11:58;;;;;;;;;;;;;;;10.33;82.76;100343.09;2046721;70;20103;-60
2021/10/13 05:14:26;;;;;;;;;;;;;;;10.41;83.17;100337.00;2046724;70;20107;-60
2021/10/13 05:16:53;;;;;;;;;;;;;;;10.48;82.75;100343.33;2046706;70;20107;-60
2021/10/13 05:19:21;;;;;;;;;;;;;;;10.56;82.47;100368.84;2046751;70;20111;-60
2021/10/13 05:21:49;;;;;;;;;;;;;;;10.72;82.28;100374.28;2046692;70;20154;-61
2021/10/13 05:24:17;;;;;;;;;;;;;;;10.87;82.34;100360.87;2046714;70;20111;-60
2021/10/13 05:26:44;;;;;;;;;;;;;;;10.94;82.22;100339.91;2032726;70;20096;-60
2021/10/13 05:29:12;;;;;;;;;;;;;;;11.00;82.07;100337.81;2018110;71;20108;-60
2021/10/13 05:31:40;;;;;;;;;;;;;;;11.06;81.73;100353.80;2018146;71;20146;-60
2021/10/13 05:34:08;;;;;;;;;;;;;;;11.13;81.55;100349.09;2018080;71;20142;-60
2021/10/13 05:36:36;;;;;;;;;;;;;;;11.25;81.50;100346.33;2018010;71;20100;-61
2021/10/13 05:39:04;;;;;;;;;;;;;;;11.47;81.43;100330.33;2018258;71;20142;-61
2021/10/13 05:41:32;;;;;;;;;;;;;;;11.73;81.26;100341.77;2018104;71;20097;-61
2021/10/13 05:44:00;;;;;;;;;;;;;;;11.94;80.96;100336.36;2018117;71;20116;-60
2021/10/13 05:46:27;;;;;;;;;;;;;;;12.26;80.79;100337.31;2018112;71;20096;-61
2021/10/13 05:48:55;;;;;;;;;;;;;;;12.83;80.71;100347.96;2018081;71;20142;-62
2021/10/13 05:51:23;;;;;;;;;;;;;;;13.42;80.54;100342.95;2018089;71;20194;-61
2021/10/13 05:53:51;;;;;;;;;;;;;;;13.82;79.73;100340.16;2018106;71;20097;-60
2021/10/13 05:56:19;;;;;;;;;;;;;;;14.04;78.54;100340.22;2018211;71;20300;-61
2021/10/13 05:58:51;;;;;;;;;;;;;;;14.19;78.24;100348.55;2018124;71;20100;-60
2021/10/13 06:01:19;;;;;;;;;;;;;;;14.41;77.96;100347.26;2017690;71;20108;-60
2021/10/13 06:03:45;;;;;;;;;;;;;;;14.79;77.75;100332.11;2017907;71;20174;-61
2021/10/13 06:06:15;;;;;;;;;;;;;;;15.22;77.61;100330.70;2018027;71;20108;-60
2021/10/13 06:08:43;;;;;;;;;;;;;;;15.53;77.04;100331.33;2018032;71;20112;-61
2021/10/13 06:11:12;;;;;;;;;;;;;;;15.78;75.83;100338.06;2018088;71;20108;-61
2021/10/13 06:13:40;;;;;;;;;;;;;;;16.07;74.87;100330.42;2018071;71;20160;-60
2021/10/13 06:16:09;;;;;;;;;;;;;;;16.30;74.14;100336.30;2018017;71;20135;-62
2021/10/13 06:18:38;;;;;;;;;;;;;;;16.72;73.92;100346.20;2018411;71;20116;-60
2021/10/13 06:21:06;;;;;;;;;;;;;;;17.30;71.86;100337.20;2018129;71;20113;-60
2021/10/13 06:23:34;;;;;;;;;;;;;;;17.71;70.68;100335.08;2018107;71;20109;-61
2021/10/13 06:26:01;;;;;;;;;;;;;;;17.74;71.43;100333.50;2018106;71;20143;-61
2021/10/13 06:28:29;;;;;;;;;;;;;;;18.05;70.29;100334.70;2038756;70;20189;-60
2021/10/13 06:30:57;;;;;;;;;;;;;;;18.28;70.30;100345.42;2039731;70;20115;-61
2021/10/13 06:33:26;;;;;;;;;;;;;;;18.60;69.53;100345.55;2039855;70;20095;-61
2021/10/13 06:35:55;;;;;;;;;;;;;;;18.81;68.81;100317.70;2039821;70;20119;-61
2021/10/13 06:38:23;;;;;;;;;;;;;;;19.48;67.75;100308.66;2040078;70;20358;-60
2021/10/13 06:40:50;;;;;;;;;;;;;;;20.10;67.53;100309.31;2039825;70;20116;-61
2021/10/13 06:43:18;;;;;;;;;;;;;;;19.87;68.97;100306.80;2039933;70;20099;-61
2021/10/13 06:45:46;;;;;;;;;;;;;;;19.31;68.56;100289.66;2039799;70;20111;-61
2021/10/13 06:48:14;;;;;;;;;;;;;;;19.10;68.26;100307.81;2039808;70;20107;-61
2021/10/13 06:50:42;;;;;;;;;;;;;;;19.32;66.66;100303.39;2039795;70;20194;-60
2021/10/13 06:53:10;;;;;;;;;;;;;;;18.96;67.04;100312.95;2039786;70;20158;-60
2021/10/13 06:55:38;;;;;;;;;;;;;;;18.62;67.03;100302.77;2039804;70;20135;-61
2021/10/13 06:58:06;;;;;;;;;;;;;;;18.35;68.03;100321.30;2039741;70;20178;-61
2021/10/13 07:00:34;;;;;;;;;;;;;;;17.97;68.75;100313.15;2039797;70;20141;-60
2021/10/13 07:03:02;;;;;;;;;;;;;;;17.61;69.24;100302.95;2039797;70;20095;-60
2021/10/13 07:05:30;;;;;;;;;;;;;;;17.34;69.82;100330.69;2039795;70;20158;-60
2021/10/13 07:07:58;;;;;;;;;;;;;;;17.18;70.17;100311.48;2039809;70;20109;-61
2021/10/13 07:10:26;;;;;;;;;;;;;;;16.98;70.41;100341.70;2039709;70;20366;-61
2021/10/13 07:12:54;;;;;;;;;;;;;;;16.79;70.73;100349.30;2039712;70;20107;-61
2021/10/13 07:15:22;;;;;;;;;;;;;;;16.63;71.03;100363.30;2039732;70;20099;-60
2021/10/13 07:17:50;;;;;;;;;;;;;;;16.47;71.22;100371.48;2039786;70;20095;-61
2021/10/13 07:20:17;;;;;;;;;;;;;;;16.30;71.55;100376.16;2039913;70;20142;-60
2021/10/13 07:22:45;;;;;;;;;;;;;;;16.12;71.75;100379.61;2039899;70;20169;-61
2021/10/13 07:25:14;;;;;;;;;;;;;;;16.02;72.01;100398.44;2039807;70;20123;-61
2021/10/13 07:27:42;;;;;;;;;;;;;;;15.94;72.19;100401.61;2039850;70;20099;-61
2021/10/13 07:30:13;;;;;;;;;;;;;;;15.94;72.30;100398.11;2039903;70;20134;-60
2021/10/13 07:32:39;;;;;;;;;;;;;;;15.92;72.34;100397.37;2039675;70;20100;-61
2021/10/13 07:35:07;;;;;;;;;;;;;;;15.90;72.45;100401.45;2039829;70;20084;-61
2021/10/13 07:37:36;;;;;;;;;;;;;;;15.88;72.62;100408.67;2039903;70;20095;-63
2021/10/13 07:40:04;;;;;;;;;;;;;;;15.82;72.61;100403.30;2039876;70;20111;-62
2021/10/13 07:42:32;;;;;;;;;;;;;;;15.82;73.89;100400.64;2040120;70;20096;-61
2021/10/13 07:45:00;;;;;;;;;;;;;;;15.85;73.66;100407.53;2039857;70;20155;-61
2021/10/13 07:47:28;;;;;;;;;;;;;;;15.87;73.50;100398.15;2039911;70;20111;-61
2021/10/13 07:49:56;;;;;;;;;;;;;;;15.97;73.53;100395.23;2039896;70;20099;-61
2021/10/13 07:52:24;;;;;;;;;;;;;;;16.12;73.74;100393.34;2039922;70;20134;-63
2021/10/13 07:54:51;;;;;;;;;;;;;;;16.35;75.53;100390.46;2039871;70;20111;-62
2021/10/13 07:57:19;;;;;;;;;;;;;;;16.68;74.94;100390.41;2039872;70;20096;-61
2021/10/13 07:59:47;;;;;;;;;;;;;;;17.03;74.66;100379.95;2039879;70;20112;-61
2021/10/13 08:02:15;;;;;;;;;;;;;;;17.40;74.49;100377.77;2039856;70;20107;-62
2021/10/13 08:04:42;;;;;;;;;;;;;;;17.70;74.02;100384.80;2039766;70;20150;-62
2021/10/13 08:07:10;;;;;;;;;;;;;;;17.94;73.55;100386.16;2039832;70;20154;-62
2021/10/13 08:09:38;;;;;;;;;;;;;;;18.23;73.15;100384.90;2039899;70;20112;-61
2021/10/13 08:12:06;;;;;;;;;;;;;;;18.52;72.80;100379.48;2039888;70;20194;-61
2021/10/13 08:14:34;;;;;;;;;;;;;;;18.83;72.19;100371.78;2039843;70;20099;-61
2021/10/13 08:17:02;;;;;;;;;;;;;;;19.02;72.01;100378.31;2039861;70;20123;-61
2021/10/13 08:19:30;;;;;;;;;;;;;;;19.14;71.81;100374.62;2040070;70;20181;-61
2021/10/13 08:21:58;;;;;;;;;;;;;;;19.34;71.55;100365.00;2039869;70;20107;-61
2021/10/13 08:24:26;;;;;;;;;;;;;;;20.20;70.54;100369.04;2039881;70;20099;-61
2021/10/13 08:26:53;;;;;;;;;;;;;;;21.50;69.16;100371.45;2039864;70;20096;-61
2021/10/13 08:29:21;;;;;;;;;;;;;;;22.81;67.11;100353.03;2045523;70;20158;-61
2021/10/13 08:31:49;;;;;;;;;;;;;;;23.32;66.42;100355.67;2046644;70;20141;-61
2021/10/13 08:34:17;;;;;;;;;;;;;;;23.40;66.01;100357.08;2046691;70;20119;-61
2021/10/13 08:36:45;;;;;;;;;;;;;;;23.41;65.93;100364.16;2046714;70;20135;-61
2021/10/13 08:39:13;;;;;;;;;;;;;;;22.98;65.21;100370.18;2046728;70;20130;-61
2021/10/13 08:41:40;;;;;;;;;;;;;;;22.63;66.10;100380.66;2046772;70;20146;-61
2021/10/13 08:44:09;;;;;;;;;;;;;;;22.46;66.71;100382.75;2046741;70;20111;-62
2021/10/13 08:46:39;;;;;;;;;;;;;;;22.12;64.90;100380.05;2046728;70;20377;-61
2021/10/13 08:49:06;;;;;;;;;;;;;;;21.69;64.65;100398.77;2046757;70;20108;-61
2021/10/13 08:51:35;;;;;;;;;;;;;;;21.44;65.34;100393.91;2046736;70;20106;-61
2021/10/13 08:54:04;;;;;;;;;;;;;;;21.24;64.68;100401.06;2046687;70;20366;-61
2021/10/13 08:56:32;;;;;;;;;;;;;;;21.05;65.29;100390.66;2046643;70;20201;-61
2021/10/13 08:59:01;;;;;;;;;;;;;;;20.96;65.30;100394.14;2046615;70;20106;-61
2021/10/13 09:01:29;;;;;;;;;;;;;;;20.97;65.06;100390.47;2046719;70;20148;-61
2021/10/13 09:03:58;;;;;;;;;;;;;;;21.43;64.24;100387.69;2046720;70;20108;-62
2021/10/13 09:06:28;;;;;;;;;;;;;;;21.43;62.65;100380.99;2046061;70;20138;-61
2021/10/13 09:09:00;;;;;;;;;;;;;;;21.43;63.69;100372.12;2046726;70;20099;-61
2021/10/13 09:11:35;;;;;;;;;;;;;;;21.97;62.52;100375.63;2045761;70;20095;-60
2021/10/13 09:14:07;;;;;;;;;;;;;;;23.37;59.44;100378.90;2046800;70;20115;-61
2021/10/13 09:16:55;;;;;;;;;;;;;;;24.30;54.89;100380.39;2046660;70;20369;-61
2021/10/13 09:19:24;;;;;;;;;;;;;;;24.76;53.92;100381.86;2046702;70;20099;-61
2021/10/13 09:21:56;;;;;;;;;;;;;;;23.88;55.05;100389.98;2046299;69;20111;-61
2021/10/13 09:24:25;;;;;;;;;;;;;;;23.44;55.84;100393.42;2046708;70;20467;-60
2021/10/13 09:26:57;;;;;;;;;;;;;;;24.31;55.32;100382.06;2046747;70;20409;-61
2021/10/13 09:29:25;;;;;;;;;;;;;;;25.21;52.96;100370.41;2046670;70;20141;-61
2021/10/13 09:32:00;;;;;;;;;;;;;;;25.79;51.55;100370.88;2046721;70;20111;-61
2021/10/13 09:34:28;;;;;;;;;;;;;;;26.29;50.77;100369.53;2046599;70;20111;-61
2021/10/13 09:36:59;;;;;;;;;;;;;;;26.62;48.34;100383.83;2046691;70;20107;-61
2021/10/13 09:39:28;;;;;;;;;;;;;;;26.52;48.60;100374.55;2046788;70;20137;-60
2021/10/13 09:41:57;;;;;;;;;;;;;;;26.56;48.63;100361.03;2046596;70;20107;-60
2021/10/13 09:44:26;;;;;;;;;;;;;;;26.63;47.53;100368.45;2046670;70;20137;-61
2021/10/13 09:46:55;;;;;;;;;;;;;;;26.84;48.24;100367.89;2046601;70;20150;-61
2021/10/13 09:49:41;;;;;;;;;;;;;;;26.55;48.27;100397.65;2046022;70;20111;-61
2021/10/13 09:52:10;;;;;;;;;;;;;;;25.43;49.75;100397.28;2046701;70;20111;-61
2021/10/13 09:54:39;;;;;;;;;;;;;;;25.16;50.06;100428.00;2045818;70;20095;-61
2021/10/13 09:57:15;;;;;;;;;;;;;;;25.09;50.74;100437.73;2046635;70;20386;-62
2021/10/13 10:00:02;;;;;;;;;;;;;;;24.42;51.68;100435.62;2045674;70;20115;-61
2021/10/13 10:02:33;;;;;;;;;;;;;;;23.76;52.97;100440.42;2046813;70;20129;-61
2021/10/13 10:05:04;;;;;;;;;;;;;;;23.38;53.99;100465.70;2045578;70;20111;-61
2021/10/13 10:07:32;;;;;;;;;;;;;;;22.70;55.11;100477.05;2046650;70;20180;-63
2021/10/13 10:10:07;;;;;;;;;;;;;;;22.19;56.37;100480.89;2046655;70;20181;-61
2021/10/13 10:12:53;;;;;;;;;;;;;;;21.61;57.08;100501.75;2046709;70;20349;-61
2021/10/13 10:15:37;;;;;;;;;;;;;;;21.07;58.07;100485.05;2046815;70;20109;-62
2021/10/13 10:18:24;;;;;;;;;;;;;;;20.56;59.42;100459.94;2046651;70;20412;-61
2021/10/13 10:20:52;;;;;;;;;;;;;;;20.22;60.61;100437.92;2046703;70;20158;-62
2021/10/13 10:23:27;;;;;;;;;;;;;;;20.05;61.39;100464.23;2046717;70;20107;-61
2021/10/13 10:25:56;;;;;;;;;;;;;;;19.93;62.07;100448.38;2046690;70;20369;-62
2021/10/13 10:28:42;;;;;;;;;;;;;;;19.92;62.17;100460.89;2046651;70;20142;-61
2021/10/13 10:31:29;;;;;;;;;;;;;;;20.12;62.10;100456.56;2046961;70;20141;-62
2021/10/13 10:34:05;;;;;;;;;;;;;;;20.47;61.63;100463.91;2046677;70;20103;-61
2021/10/13 10:36:40;;;;;;;;;;;;;;;20.91;61.10;100449.89;2046622;70;20142;-61
2021/10/13 10:39:09;;;;;;;;;;;;;;;21.46;59.66;100477.18;2046632;70;20459;-61
2021/10/13 10:41:41;;;;;;;;;;;;;;;21.31;59.43;100475.34;2046747;70;20138;-61
2021/10/13 10:44:28;;;;;;;;;;;;;;;21.08;60.29;100500.14;2046735;70;20107;-61
2021/10/13 10:47:03;;;;;;;;;;;;;;;21.17;60.34;100504.69;2046888;70;20149;-61
2021/10/13 10:49:54;;;;;;;;;;;;;;;21.45;59.87;100508.98;2046582;70;20107;-61
2021/10/13 10:52:23;;;;;;;;;;;;;;;21.49;59.63;100501.53;2044424;70;20108;-62
2021/10/13 10:54:55;;;;;;;;;;;;;;;21.26;60.07;100503.52;2045011;70;20133;-61
2021/10/13 10:57:30;;;;;;;;;;;;;;;21.03;60.33;100514.41;2046613;70;20151;-61
2021/10/13 10:59:58;;;;;;;;;;;;;;;20.77;60.96;100513.48;2046568;70;20353;-61
2021/10/13 11:02:26;;;;;;;;;;;;;;;20.67;61.44;100518.41;2046645;70;20099;-61
2021/10/13 11:05:11;;;;;;;;;;;;;;;20.83;61.27;100521.48;2046638;70;20111;-61
2021/10/13 11:07:39;;;;;;;;;;;;;;;21.48;60.01;100512.70;2046796;70;20369;-61
2021/10/13 11:10:09;;;;;;;;;;;;;;;21.66;59.16;100517.43;2046573;70;20373;-62
2021/10/13 11:12:53;;;;;;;;;;;;;;;21.45;59.53;100500.95;2045535;70;20162;-61
2021/10/13 11:15:25;;;;;;;;;;;;;;;21.30;59.90;100512.50;2046632;70;20342;-59
2021/10/13 11:17:53;;;;;;;;;;;;;;;21.12;60.11;100487.34;2045766;70;20158;-61
2021/10/13 11:20:22;;;;;;;;;;;;;;;20.96;60.25;100527.95;2046631;70;20107;-61
2021/10/13 11:22:58;;;;;;;;;;;;;;;20.85;60.55;100534.23;2046542;70;20108;-61
2021/10/13 11:25:26;;;;;;;;;;;;;;;21.05;60.48;100534.36;2046631;70;20350;-60
2021/10/13 11:27:58;;;;;;;;;;;;;;;21.61;59.06;100529.05;2046595;70;20107;-61
2021/10/13 11:30:29;;;;;;;;;;;;;;;21.95;57.73;100546.48;2030162;70;20112;-61
2021/10/13 11:32:57;;;;;;;;;;;;;;;22.11;57.60;100545.95;2018055;71;20253;-62
2021/10/13 11:35:25;;;;;;;;;;;;;;;22.21;57.65;100555.33;2017898;71;20389;-61
2021/10/13 11:40:41;;;;;;;;;;;;;;;21.89;58.45;100559.10;1904367;75;20362;-60
2021/10/13 11:43:10;;;;;;;;;;;;;;;21.66;58.93;100564.32;1904156;75;20151;-59
2021/10/13 11:45:52;;;;;;;;;;;;;;;21.54;59.33;100569.78;1904072;75;20394;-61
2021/10/13 11:48:23;;;;;;;;;;;;;;;21.42;59.94;100566.80;1904177;75;20112;-61
2021/10/13 11:50:53;;;;;;;;;;;;;;;21.28;60.13;100580.54;1904196;75;20405;-61
2021/10/13 11:53:21;;;;;;;;;;;;;;;21.07;60.67;100588.61;1904271;75;20413;-61
2021/10/13 11:55:49;;;;;;;;;;;;;;;20.88;60.82;100589.30;1904133;75;20116;-61
2021/10/13 11:58:19;;;;;;;;;;;;;;;20.70;61.33;100589.89;1904061;75;20158;-61
2021/10/13 12:00:47;;;;;;;;;;;;;;;20.43;62.11;100597.86;1902259;75;20120;-61
2021/10/13 12:03:15;;;;;;;;;;;;;;;20.18;62.89;100608.91;1904155;75;20125;-61
2021/10/13 12:05:44;;;;;;;;;;;;;;;19.97;63.40;100610.14;1904253;75;20116;-61
2021/10/13 12:08:13;;;;;;;;;;;;;;;19.78;64.51;100606.77;1904277;75;20120;-62
2021/10/13 12:10:51;;;;;;;;;;;;;;;19.70;64.70;100623.37;1904175;75;20115;-62
2021/10/13 12:13:21;;;;;;;;;;;;;;;19.65;65.23;100626.40;1904252;75;20370;-61
2021/10/13 12:15:49;;;;;;;;;;;;;;;19.56;65.54;100636.48;1904099;75;20147;-62
2021/10/13 12:18:18;;;;;;;;;;;;;;;19.49;65.63;100655.28;1904345;75;20124;-61
2021/10/13 12:20:48;;;;;;;;;;;;;;;19.43;65.86;100649.09;1904238;75;20111;-62
2021/10/13 12:23:17;;;;;;;;;;;;;;;19.41;65.92;100656.38;1904171;75;20120;-62
2021/10/13 12:25:45;;;;;;;;;;;;;;;19.38;66.11;100663.28;1904233;75;20374;-61
2021/10/13 12:28:14;;;;;;;;;;;;;;;19.38;66.28;100672.13;1904245;75;20116;-61
2021/10/13 12:30:42;;;;;;;;;;;;;;;19.43;65.92;100662.44;1904271;75;20107;-61
2021/10/13 12:33:18;;;;;;;;;;;;;;;19.50;65.59;100677.52;1904558;75;20116;-61
2021/10/13 12:35:46;;;;;;;;;;;;;;;19.57;65.39;100664.89;1904144;75;20154;-63
2021/10/13 12:38:15;;;;;;;;;;;;;;;19.50;65.38;100673.02;1904258;75;20111;-61
2021/10/13 12:40:44;;;;;;;;;;;;;;;19.43;65.57;100671.30;1904349;75;20119;-61
2021/10/13 12:43:22;;;;;;;;;;;;;;;19.41;65.69;100668.39;1903582;75;20119;-61
2021/10/13 12:45:50;;;;;;;;;;;;;;;19.43;65.78;100673.12;1904240;75;20120;-61
2021/10/13 12:48:22;;;;;;;;;;;;;;;19.42;65.69;100682.09;1904162;75;20116;-62
2021/10/13 12:51:06;;;;;;;;;;;;;;;19.36;66.01;100670.56;1904513;75;20374;-62
2021/10/13 12:53:35;;;;;;;;;;;;;;;19.34;66.02;100672.50;1904135;75;20175;-61
2021/10/13 12:56:03;;;;;;;;;;;;;;;19.34;66.20;100683.17;1904204;75;20104;-61